createdAt,value
2023-02-07T00:00:30.000Z,79.45
2023-02-07T00:01:31.000Z,79.47
2023-02-07T00:02:30.000Z,79.42
2023-02-07T00:03:30.000Z,79.45
2023-02-07T00:04:30.000Z,79.40
2023-02-07T00:05:30.000Z,79.25
2023-02-07T00:06:33.000Z,79.28
2023-02-07T00:07:30.000Z,79.40
2023-02-07T00:08:30.000Z,79.35
2023-02-07T00:09:30.000Z,79.35
2023-02-07T00:10:30.000Z,79.40
2023-02-07T00:11:30.000Z,79.29
2023-02-07T00:12:30.000Z,79.12
2023-02-07T00:13:30.000Z,79.11
2023-02-07T00:14:30.000Z,79.08
2023-02-07T00:15:30.000Z,79.14
2023-02-07T00:16:30.000Z,79.32
2023-02-07T00:17:30.000Z,79.34
2023-02-07T00:18:31.000Z,79.38
2023-02-07T00:19:30.000Z,79.39
2023-02-07T00:20:30.000Z,79.44
2023-02-07T00:21:30.000Z,79.74
2023-02-07T00:22:30.000Z,79.72
2023-02-07T00:23:30.000Z,79.57
2023-02-07T00:24:30.000Z,79.76
2023-02-07T00:25:30.000Z,79.82
2023-02-07T00:26:30.000Z,79.78
2023-02-07T00:27:30.000Z,79.89
2023-02-07T00:28:30.000Z,79.86
2023-02-07T00:29:31.000Z,79.98
2023-02-07T00:30:29.000Z,80.04
2023-02-07T00:31:31.000Z,80.15
2023-02-07T00:32:31.000Z,80.24
2023-02-07T00:33:30.000Z,80.34
2023-02-07T00:34:30.000Z,80.49
2023-02-07T00:35:29.000Z,80.53
2023-02-07T00:36:31.000Z,80.68
2023-02-07T00:37:30.000Z,80.77
2023-02-07T00:38:30.000Z,80.76
2023-02-07T00:39:30.000Z,80.79
2023-02-07T00:40:30.000Z,80.90
2023-02-07T00:41:30.000Z,81.04
2023-02-07T00:42:30.000Z,80.99
2023-02-07T00:43:30.000Z,80.87
2023-02-07T00:44:31.000Z,80.77
2023-02-07T00:45:30.000Z,80.75
2023-02-07T00:46:30.000Z,80.73
2023-02-07T00:47:30.000Z,80.88
2023-02-07T00:48:30.000Z,80.94
2023-02-07T00:49:29.000Z,81.12
2023-02-07T00:50:29.000Z,81.25
2023-02-07T00:51:30.000Z,81.27
2023-02-07T00:52:29.000Z,81.13
2023-02-07T00:53:30.000Z,81.23
2023-02-07T00:54:30.000Z,81.21
2023-02-07T00:55:30.000Z,81.09
2023-02-07T00:56:30.000Z,81.00
2023-02-07T00:57:30.000Z,80.70
2023-02-07T00:58:30.000Z,80.40
2023-02-07T00:59:29.000Z,80.19
2023-02-07T01:00:30.000Z,80.13
2023-02-07T01:01:30.000Z,80.03
2023-02-07T01:02:29.000Z,79.91
2023-02-07T01:03:30.000Z,79.53
2023-02-07T01:04:30.000Z,79.37
2023-02-07T01:05:29.000Z,79.22
2023-02-07T01:06:32.000Z,79.29
2023-02-07T01:07:30.000Z,79.17
2023-02-07T01:08:30.000Z,79.18
2023-02-07T01:09:30.000Z,79.16
2023-02-07T01:10:31.000Z,79.31
2023-02-07T01:11:30.000Z,79.26
2023-02-07T01:12:30.000Z,78.71
2023-02-07T01:13:30.000Z,78.60
2023-02-07T01:14:30.000Z,78.40
2023-02-07T01:15:30.000Z,78.44
2023-02-07T01:16:33.000Z,78.30
2023-02-07T01:17:29.000Z,78.17
2023-02-07T01:18:29.000Z,77.86
2023-02-07T01:19:30.000Z,77.91
2023-02-07T01:20:30.000Z,77.80
2023-02-07T01:21:30.000Z,77.80
2023-02-07T01:22:29.000Z,77.76
2023-02-07T01:23:29.000Z,77.64
2023-02-07T01:24:30.000Z,77.50
2023-02-07T01:25:30.000Z,77.34
2023-02-07T01:26:30.000Z,77.29
2023-02-07T01:27:30.000Z,77.04
2023-02-07T01:28:30.000Z,77.00
2023-02-07T01:29:29.000Z,76.96
2023-02-07T01:30:30.000Z,77.03
2023-02-07T01:31:29.000Z,77.17
2023-02-07T01:32:32.000Z,77.00
2023-02-07T01:33:29.000Z,76.83
2023-02-07T01:34:29.000Z,76.86
2023-02-07T01:35:30.000Z,77.05
2023-02-07T01:36:29.000Z,76.87
2023-02-07T01:37:29.000Z,76.96
2023-02-07T01:38:29.000Z,77.23
2023-02-07T01:39:29.000Z,77.06
2023-02-07T01:40:30.000Z,77.10
2023-02-07T01:41:30.000Z,77.14
2023-02-07T01:42:29.000Z,77.23
2023-02-07T01:43:30.000Z,77.36
2023-02-07T01:44:50.000Z,77.42
2023-02-07T01:45:36.000Z,77.35
2023-02-07T01:46:31.000Z,77.42
2023-02-07T01:47:31.000Z,77.47
2023-02-07T01:48:35.000Z,77.51
2023-02-07T01:49:34.000Z,77.42
2023-02-07T01:50:30.000Z,77.26
2023-02-07T01:51:31.000Z,77.05
2023-02-07T01:52:34.000Z,77.09
2023-02-07T01:53:33.000Z,77.05
2023-02-07T01:54:34.000Z,76.93
2023-02-07T01:55:33.000Z,76.62
2023-02-07T01:56:30.000Z,76.59
2023-02-07T01:57:30.000Z,76.66
2023-02-07T01:58:32.000Z,76.85
2023-02-07T01:59:32.000Z,76.45
2023-02-07T02:00:30.000Z,76.34
2023-02-07T02:01:30.000Z,76.39
2023-02-07T02:02:34.000Z,76.28
2023-02-07T02:03:31.000Z,76.12
2023-02-07T02:04:30.000Z,76.02
2023-02-07T02:05:32.000Z,74.95
2023-02-07T02:06:32.000Z,74.86
2023-02-07T02:07:33.000Z,74.96
2023-02-07T02:08:30.000Z,74.44
2023-02-07T02:09:30.000Z,74.36
2023-02-07T02:10:50.000Z,73.96
2023-02-07T02:11:43.000Z,74.02
2023-02-07T02:12:42.000Z,73.96
2023-02-07T02:13:48.000Z,74.00
2023-02-07T02:14:47.000Z,74.26
2023-02-07T02:15:39.000Z,74.02
2023-02-07T02:16:50.000Z,73.46
2023-02-07T02:17:46.000Z,73.34
2023-02-07T02:18:46.000Z,73.34
2023-02-07T02:19:46.000Z,73.46
2023-02-07T02:20:50.000Z,73.41
2023-02-07T02:21:50.000Z,73.33
2023-02-07T02:22:54.000Z,73.10
2023-02-07T02:23:45.000Z,73.13
2023-02-07T02:24:50.000Z,73.27
2023-02-07T02:25:40.000Z,72.78
2023-02-07T02:26:52.000Z,72.93
2023-02-07T02:27:40.000Z,72.75
2023-02-07T02:28:52.000Z,72.85
2023-02-07T02:29:40.000Z,72.87
2023-02-07T02:30:46.000Z,72.84
2023-02-07T02:31:45.000Z,72.70
2023-02-07T02:32:39.000Z,73.13
2023-02-07T02:33:40.000Z,73.05
2023-02-07T02:34:39.000Z,72.78
2023-02-07T02:35:40.000Z,72.61
2023-02-07T02:36:46.000Z,72.65
2023-02-07T02:37:42.000Z,72.56
2023-02-07T02:38:41.000Z,72.73
2023-02-07T02:39:39.000Z,72.93
2023-02-07T02:40:40.000Z,72.93
2023-02-07T02:41:38.000Z,72.81
2023-02-07T02:42:40.000Z,72.56
2023-02-07T02:43:40.000Z,72.84
2023-02-07T02:44:36.000Z,72.80
2023-02-07T02:45:34.000Z,72.91
2023-02-07T02:46:34.000Z,72.95
2023-02-07T02:47:31.000Z,73.28
2023-02-07T02:48:32.000Z,73.10
2023-02-07T02:49:32.000Z,73.21
2023-02-07T02:50:32.000Z,73.08
2023-02-07T02:51:30.000Z,73.05
2023-02-07T02:52:30.000Z,72.85
2023-02-07T02:53:30.000Z,73.32
2023-02-07T02:54:35.000Z,73.15
2023-02-07T02:55:58.000Z,72.77
2023-02-07T02:56:40.000Z,73.18
2023-02-07T02:57:47.000Z,73.04
2023-02-07T02:58:47.000Z,72.89
2023-02-07T02:59:49.000Z,73.04
2023-02-07T03:00:39.000Z,73.03
2023-02-07T03:01:48.000Z,73.22
2023-02-07T03:02:42.000Z,73.12
2023-02-07T03:03:39.000Z,73.10
2023-02-07T03:04:49.000Z,73.25
2023-02-07T03:05:41.000Z,73.29
2023-02-07T03:06:45.000Z,73.43
2023-02-07T03:07:44.000Z,73.51
2023-02-07T03:08:41.000Z,73.40
2023-02-07T03:09:39.000Z,73.37
2023-02-07T03:10:37.000Z,73.61
2023-02-07T03:11:38.000Z,73.38
2023-02-07T03:12:50.000Z,73.33
2023-02-07T03:14:05.000Z,73.38
2023-02-07T03:14:42.000Z,73.39
2023-02-07T03:15:42.000Z,73.53
2023-02-07T03:16:38.000Z,73.59
2023-02-07T03:17:42.000Z,73.65
2023-02-07T03:18:44.000Z,73.80
2023-02-07T03:19:36.000Z,73.76
2023-02-07T03:20:37.000Z,73.78
2023-02-07T03:21:35.000Z,73.75
2023-02-07T03:22:31.000Z,73.87
2023-02-07T03:23:31.000Z,74.00
2023-02-07T03:24:32.000Z,73.84
2023-02-07T03:25:30.000Z,74.17
2023-02-07T03:26:31.000Z,73.97
2023-02-07T03:27:31.000Z,73.88
2023-02-07T03:28:31.000Z,73.88
2023-02-07T03:29:34.000Z,74.24
2023-02-07T03:30:33.000Z,73.80
2023-02-07T03:31:30.000Z,74.16
2023-02-07T03:32:35.000Z,74.04
2023-02-07T03:33:30.000Z,74.05
2023-02-07T03:34:40.000Z,73.93
2023-02-07T03:35:40.000Z,73.98
2023-02-07T03:36:47.000Z,74.19
2023-02-07T03:37:37.000Z,74.06
2023-02-07T03:38:30.000Z,74.09
2023-02-07T03:39:30.000Z,73.86
2023-02-07T03:40:36.000Z,74.02
2023-02-07T03:41:36.000Z,74.18
2023-02-07T03:42:38.000Z,74.08
2023-02-07T03:43:33.000Z,74.13
2023-02-07T03:44:33.000Z,74.20
2023-02-07T03:45:30.000Z,74.28
2023-02-07T03:46:33.000Z,74.14
2023-02-07T03:47:30.000Z,73.82
2023-02-07T03:48:30.000Z,73.80
2023-02-07T03:49:30.000Z,74.04
2023-02-07T03:50:29.000Z,73.83
2023-02-07T03:51:30.000Z,73.70
2023-02-07T03:52:29.000Z,74.06
2023-02-07T03:53:29.000Z,74.14
2023-02-07T03:54:30.000Z,74.11
2023-02-07T03:55:31.000Z,74.03
2023-02-07T03:56:29.000Z,73.74
2023-02-07T03:57:29.000Z,73.76
2023-02-07T03:58:29.000Z,73.87
2023-02-07T03:59:30.000Z,73.94
2023-02-07T04:00:29.000Z,74.22
2023-02-07T04:01:30.000Z,74.08
2023-02-07T04:02:29.000Z,74.19
2023-02-07T04:03:29.000Z,74.29
2023-02-07T04:04:29.000Z,74.32
2023-02-07T04:05:29.000Z,73.93
2023-02-07T04:06:29.000Z,73.98
2023-02-07T04:07:29.000Z,74.03
2023-02-07T04:08:30.000Z,73.97
2023-02-07T04:09:30.000Z,74.21
2023-02-07T04:10:29.000Z,74.43
2023-02-07T04:11:30.000Z,74.41
2023-02-07T04:12:31.000Z,74.27
2023-02-07T04:13:29.000Z,74.54
2023-02-07T04:14:29.000Z,74.43
2023-02-07T04:15:29.000Z,74.21
2023-02-07T04:16:30.000Z,74.32
2023-02-07T04:17:29.000Z,74.56
2023-02-07T04:18:29.000Z,74.42
2023-02-07T04:19:30.000Z,74.57
2023-02-07T04:20:30.000Z,74.73
2023-02-07T04:21:29.000Z,74.33
2023-02-07T04:22:30.000Z,74.38
2023-02-07T04:23:30.000Z,74.14
2023-02-07T04:24:31.000Z,74.24
2023-02-07T04:25:30.000Z,74.30
2023-02-07T04:26:30.000Z,74.25
2023-02-07T04:27:30.000Z,74.18
2023-02-07T04:28:30.000Z,73.98
2023-02-07T04:29:29.000Z,74.13
2023-02-07T04:30:30.000Z,74.32
2023-02-07T04:31:30.000Z,74.25
2023-02-07T04:32:30.000Z,74.26
2023-02-07T04:33:30.000Z,74.51
2023-02-07T04:34:30.000Z,74.61
2023-02-07T04:35:30.000Z,74.44
2023-02-07T04:36:30.000Z,74.65
2023-02-07T04:37:30.000Z,74.28
2023-02-07T04:38:30.000Z,74.25
2023-02-07T04:39:30.000Z,74.08
2023-02-07T04:40:30.000Z,74.48
2023-02-07T04:41:30.000Z,74.54
2023-02-07T04:42:30.000Z,74.33
2023-02-07T04:43:34.000Z,74.07
2023-02-07T04:44:30.000Z,74.26
2023-02-07T04:45:30.000Z,74.50
2023-02-07T04:46:30.000Z,74.32
2023-02-07T04:47:30.000Z,74.07
2023-02-07T04:48:30.000Z,74.11
2023-02-07T04:49:30.000Z,74.14
2023-02-07T04:50:30.000Z,74.25
2023-02-07T04:51:30.000Z,74.38
2023-02-07T04:52:30.000Z,74.37
2023-02-07T04:53:30.000Z,74.53
2023-02-07T04:54:30.000Z,74.51
2023-02-07T04:55:30.000Z,74.54
2023-02-07T04:56:30.000Z,74.50
2023-02-07T04:57:30.000Z,74.47
2023-02-07T04:58:30.000Z,74.52
2023-02-07T04:59:30.000Z,74.74
2023-02-07T05:00:30.000Z,75.05
2023-02-07T05:01:30.000Z,75.01
2023-02-07T05:02:29.000Z,74.93
2023-02-07T05:03:29.000Z,74.85
2023-02-07T05:04:29.000Z,75.05
2023-02-07T05:05:29.000Z,74.46
2023-02-07T05:06:29.000Z,74.40
2023-02-07T05:07:29.000Z,74.42
2023-02-07T05:08:29.000Z,74.58
2023-02-07T05:09:29.000Z,74.76
2023-02-07T05:10:29.000Z,74.57
2023-02-07T05:11:29.000Z,74.78
2023-02-07T05:12:29.000Z,74.47
2023-02-07T05:13:29.000Z,74.36
2023-02-07T05:14:29.000Z,74.78
2023-02-07T05:15:29.000Z,74.79
2023-02-07T05:16:29.000Z,74.74
2023-02-07T05:17:33.000Z,75.19
2023-02-07T05:18:29.000Z,74.97
2023-02-07T05:19:29.000Z,74.84
2023-02-07T05:20:29.000Z,74.50
2023-02-07T05:21:29.000Z,74.40
2023-02-07T05:22:29.000Z,74.40
2023-02-07T05:23:29.000Z,74.76
2023-02-07T05:24:29.000Z,74.81
2023-02-07T05:25:29.000Z,74.87
2023-02-07T05:26:29.000Z,74.57
2023-02-07T05:27:29.000Z,74.92
2023-02-07T05:28:29.000Z,74.43
2023-02-07T05:29:29.000Z,74.45
2023-02-07T05:30:29.000Z,74.60
2023-02-07T05:31:34.000Z,74.46
2023-02-07T05:32:35.000Z,74.75
2023-02-07T05:33:29.000Z,74.64
2023-02-07T05:34:29.000Z,74.69
2023-02-07T05:35:38.000Z,74.54
2023-02-07T05:36:29.000Z,74.78
2023-02-07T05:37:29.000Z,74.81
2023-02-07T05:38:29.000Z,74.99
2023-02-07T05:39:29.000Z,74.95
2023-02-07T05:40:29.000Z,74.65
2023-02-07T05:41:29.000Z,74.44
2023-02-07T05:42:30.000Z,74.70
2023-02-07T05:43:29.000Z,74.58
2023-02-07T05:44:29.000Z,74.51
2023-02-07T05:45:29.000Z,74.49
2023-02-07T05:46:29.000Z,74.78
2023-02-07T05:47:30.000Z,74.70
2023-02-07T05:48:29.000Z,75.06
2023-02-07T05:49:30.000Z,74.96
2023-02-07T05:50:30.000Z,74.80
2023-02-07T05:51:29.000Z,74.85
2023-02-07T05:52:29.000Z,74.76
2023-02-07T05:53:29.000Z,75.00
2023-02-07T05:54:30.000Z,74.88
2023-02-07T05:55:29.000Z,75.30
2023-02-07T05:56:29.000Z,75.49
2023-02-07T05:57:30.000Z,75.59
2023-02-07T05:58:29.000Z,75.37
2023-02-07T05:59:29.000Z,75.38
2023-02-07T06:00:29.000Z,75.37
2023-02-07T06:01:30.000Z,75.28
2023-02-07T06:02:29.000Z,75.29
2023-02-07T06:03:30.000Z,75.04
2023-02-07T06:04:30.000Z,74.96
2023-02-07T06:05:30.000Z,75.49
2023-02-07T06:06:30.000Z,75.16
2023-02-07T06:07:30.000Z,75.50
2023-02-07T06:08:30.000Z,75.18
2023-02-07T06:09:30.000Z,74.94
2023-02-07T06:10:30.000Z,74.91
2023-02-07T06:11:30.000Z,75.01
2023-02-07T06:12:30.000Z,75.12
2023-02-07T06:13:30.000Z,75.29
2023-02-07T06:14:30.000Z,75.17
2023-02-07T06:15:30.000Z,75.49
2023-02-07T06:16:30.000Z,75.50
2023-02-07T06:17:30.000Z,75.57
2023-02-07T06:18:30.000Z,75.43
2023-02-07T06:19:30.000Z,75.51
2023-02-07T06:20:29.000Z,75.78
2023-02-07T06:21:30.000Z,75.99
2023-02-07T06:22:30.000Z,76.11
2023-02-07T06:23:30.000Z,76.09
2023-02-07T06:24:30.000Z,75.62
2023-02-07T06:25:30.000Z,75.65
2023-02-07T06:26:30.000Z,75.69
2023-02-07T06:27:30.000Z,75.52
2023-02-07T06:28:30.000Z,75.73
2023-02-07T06:29:30.000Z,75.84
2023-02-07T06:30:30.000Z,75.88
2023-02-07T06:31:30.000Z,75.86
2023-02-07T06:32:30.000Z,75.77
2023-02-07T06:33:30.000Z,76.24
2023-02-07T06:34:30.000Z,75.90
2023-02-07T06:35:29.000Z,75.93
2023-02-07T06:36:29.000Z,75.94
2023-02-07T06:37:30.000Z,75.88
2023-02-07T06:38:29.000Z,75.97
2023-02-07T06:39:29.000Z,75.93
2023-02-07T06:40:29.000Z,75.89
2023-02-07T06:41:29.000Z,76.11
2023-02-07T06:42:29.000Z,75.80
2023-02-07T06:43:29.000Z,75.85
2023-02-07T06:44:29.000Z,75.71
2023-02-07T06:45:29.000Z,76.08
2023-02-07T06:46:30.000Z,76.08
2023-02-07T06:47:29.000Z,76.16
2023-02-07T06:48:29.000Z,75.72
2023-02-07T06:49:30.000Z,75.75
2023-02-07T06:50:29.000Z,75.68
2023-02-07T06:51:30.000Z,75.68
2023-02-07T06:52:29.000Z,76.04
2023-02-07T06:53:29.000Z,75.80
2023-02-07T06:54:29.000Z,75.41
2023-02-07T06:55:36.000Z,75.55
2023-02-07T06:56:30.000Z,75.26
2023-02-07T06:57:29.000Z,75.30
2023-02-07T06:58:29.000Z,75.26
2023-02-07T06:59:30.000Z,75.24
2023-02-07T07:00:30.000Z,75.14
2023-02-07T07:01:30.000Z,75.10
2023-02-07T07:02:29.000Z,75.10
2023-02-07T07:03:30.000Z,75.23
2023-02-07T07:04:30.000Z,75.29
2023-02-07T07:05:30.000Z,75.22
2023-02-07T07:06:29.000Z,75.36
2023-02-07T07:07:29.000Z,75.51
2023-02-07T07:08:29.000Z,75.27
2023-02-07T07:09:29.000Z,75.52
2023-02-07T07:10:29.000Z,75.28
2023-02-07T07:11:30.000Z,75.03
2023-02-07T07:12:29.000Z,74.74
2023-02-07T07:13:29.000Z,74.46
2023-02-07T07:14:29.000Z,74.59
2023-02-07T07:15:29.000Z,74.45
2023-02-07T07:16:29.000Z,74.44
2023-02-07T07:17:29.000Z,74.57
2023-02-07T07:18:29.000Z,74.49
2023-02-07T07:19:29.000Z,74.36
2023-02-07T07:20:29.000Z,74.37
2023-02-07T07:21:30.000Z,74.40
2023-02-07T07:22:29.000Z,74.40
2023-02-07T07:23:30.000Z,74.43
2023-02-07T07:24:29.000Z,74.40
2023-02-07T07:25:29.000Z,74.40
2023-02-07T07:26:29.000Z,74.31
2023-02-07T07:27:30.000Z,74.15
2023-02-07T07:28:30.000Z,74.09
2023-02-07T07:29:29.000Z,74.17
2023-02-07T07:30:30.000Z,74.09
2023-02-07T07:31:29.000Z,73.98
2023-02-07T07:32:31.000Z,74.13
2023-02-07T07:33:29.000Z,73.88
2023-02-07T07:34:30.000Z,74.12
2023-02-07T07:35:29.000Z,74.23
2023-02-07T07:36:29.000Z,74.37
2023-02-07T07:37:30.000Z,73.96
2023-02-07T07:38:30.000Z,74.76
2023-02-07T07:39:30.000Z,73.85
2023-02-07T07:40:29.000Z,73.53
2023-02-07T07:41:29.000Z,73.55
2023-02-07T07:42:29.000Z,73.24
2023-02-07T07:43:29.000Z,73.10
2023-02-07T07:44:29.000Z,73.03
2023-02-07T07:45:29.000Z,73.13
2023-02-07T07:46:29.000Z,72.77
2023-02-07T07:47:29.000Z,72.70
2023-02-07T07:48:29.000Z,72.81
2023-02-07T07:49:29.000Z,72.87
2023-02-07T07:50:29.000Z,72.81
2023-02-07T07:51:29.000Z,72.99
2023-02-07T07:52:29.000Z,72.58
2023-02-07T07:53:29.000Z,72.90
2023-02-07T07:54:29.000Z,72.37
2023-02-07T07:55:29.000Z,72.40
2023-02-07T07:56:30.000Z,72.88
2023-02-07T07:57:29.000Z,72.43
2023-02-07T07:58:30.000Z,72.49
2023-02-07T07:59:29.000Z,72.38
2023-02-07T08:00:29.000Z,71.99
2023-02-07T08:01:29.000Z,71.71
2023-02-07T08:02:29.000Z,71.53
2023-02-07T08:03:29.000Z,71.51
2023-02-07T08:04:29.000Z,71.87
2023-02-07T08:05:29.000Z,71.36
2023-02-07T08:06:29.000Z,71.59
2023-02-07T08:07:29.000Z,70.96
2023-02-07T08:08:29.000Z,70.97
2023-02-07T08:09:29.000Z,71.00
2023-02-07T08:10:29.000Z,70.71
2023-02-07T08:11:28.000Z,70.74
2023-02-07T08:12:29.000Z,70.31
2023-02-07T08:13:29.000Z,70.29
2023-02-07T08:14:29.000Z,69.94
2023-02-07T08:15:29.000Z,70.58
2023-02-07T08:16:29.000Z,70.21
2023-02-07T08:17:29.000Z,69.97
2023-02-07T08:18:29.000Z,69.34
2023-02-07T08:19:29.000Z,69.15
2023-02-07T08:20:29.000Z,69.56
2023-02-07T08:21:30.000Z,69.08
2023-02-07T08:22:29.000Z,68.77
2023-02-07T08:23:29.000Z,68.75
2023-02-07T08:24:29.000Z,68.57
2023-02-07T08:25:29.000Z,68.73
2023-02-07T08:26:29.000Z,68.58
2023-02-07T08:27:29.000Z,68.36
2023-02-07T08:28:29.000Z,68.09
2023-02-07T08:29:29.000Z,68.22
2023-02-07T08:30:28.000Z,68.15
2023-02-07T08:31:29.000Z,68.35
2023-02-07T08:32:29.000Z,68.33
2023-02-07T08:33:29.000Z,68.41
2023-02-07T08:34:35.000Z,68.38
2023-02-07T08:35:29.000Z,67.63
2023-02-07T08:36:29.000Z,67.24
2023-02-07T08:37:29.000Z,67.39
2023-02-07T08:38:28.000Z,67.53
2023-02-07T08:39:29.000Z,67.82
2023-02-07T08:40:29.000Z,67.56
2023-02-07T08:41:29.000Z,67.47
2023-02-07T08:42:29.000Z,67.38
2023-02-07T08:43:29.000Z,66.96
2023-02-07T08:44:29.000Z,67.38
2023-02-07T08:45:28.000Z,66.56
2023-02-07T08:46:28.000Z,66.88
2023-02-07T08:47:29.000Z,66.65
2023-02-07T08:48:29.000Z,66.51
2023-02-07T08:49:29.000Z,67.11
2023-02-07T08:50:29.000Z,66.82
2023-02-07T08:51:28.000Z,67.21
2023-02-07T08:52:29.000Z,67.24
2023-02-07T08:53:28.000Z,67.29
2023-02-07T08:54:29.000Z,67.33
2023-02-07T08:55:29.000Z,66.85
2023-02-07T08:56:28.000Z,66.68
2023-02-07T08:57:29.000Z,66.76
2023-02-07T08:58:29.000Z,66.22
2023-02-07T08:59:29.000Z,66.24
2023-02-07T09:00:29.000Z,66.57
2023-02-07T09:01:29.000Z,66.16
2023-02-07T09:02:28.000Z,65.52
2023-02-07T09:03:28.000Z,65.56
2023-02-07T09:04:28.000Z,65.75
2023-02-07T09:05:31.000Z,66.18
2023-02-07T09:06:29.000Z,66.21
2023-02-07T09:07:30.000Z,66.03
2023-02-07T09:08:29.000Z,65.98
2023-02-07T09:09:31.000Z,65.48
2023-02-07T09:10:30.000Z,65.38
2023-02-07T09:11:29.000Z,65.00
2023-02-07T09:12:30.000Z,65.13
2023-02-07T09:13:29.000Z,65.40
2023-02-07T09:14:29.000Z,65.35
2023-02-07T09:15:29.000Z,65.08
2023-02-07T09:16:29.000Z,65.12
2023-02-07T09:17:29.000Z,65.13
2023-02-07T09:18:30.000Z,64.69
2023-02-07T09:19:29.000Z,65.26
2023-02-07T09:20:29.000Z,64.95
2023-02-07T09:21:30.000Z,64.98
2023-02-07T09:22:30.000Z,64.97
2023-02-07T09:23:31.000Z,64.67
2023-02-07T09:24:30.000Z,64.65
2023-02-07T09:25:29.000Z,64.24
2023-02-07T09:26:32.000Z,64.29
2023-02-07T09:27:29.000Z,64.36
2023-02-07T09:28:29.000Z,64.72
2023-02-07T09:29:29.000Z,64.38
2023-02-07T09:30:29.000Z,64.63
2023-02-07T09:31:30.000Z,64.38
2023-02-07T09:32:29.000Z,64.50
2023-02-07T09:33:29.000Z,64.60
2023-02-07T09:34:31.000Z,64.77
2023-02-07T09:35:29.000Z,64.55
2023-02-07T09:36:30.000Z,63.83
2023-02-07T09:37:30.000Z,63.59
2023-02-07T09:38:30.000Z,63.32
2023-02-07T09:39:31.000Z,63.11
2023-02-07T09:40:33.000Z,63.44
2023-02-07T09:41:58.000Z,63.44
2023-02-07T09:42:37.000Z,63.13
2023-02-07T09:43:49.000Z,63.09
2023-02-07T09:44:39.000Z,63.02
2023-02-07T09:45:36.000Z,63.02
2023-02-07T09:46:36.000Z,63.28
2023-02-07T09:47:32.000Z,63.19
2023-02-07T09:48:39.000Z,63.45
2023-02-07T09:49:38.000Z,63.05
2023-02-07T09:50:37.000Z,62.50
2023-02-07T09:51:33.000Z,62.71
2023-02-07T09:52:35.000Z,62.51
2023-02-07T09:53:41.000Z,62.36
2023-02-07T09:54:39.000Z,62.46
2023-02-07T09:55:43.000Z,62.49
2023-02-07T09:56:31.000Z,62.49
2023-02-07T09:57:42.000Z,62.77
2023-02-07T09:58:43.000Z,62.59
2023-02-07T10:00:06.000Z,62.59
2023-02-07T10:00:32.000Z,62.75
2023-02-07T10:01:48.000Z,63.27
2023-02-07T10:02:37.000Z,62.30
2023-02-07T10:03:31.000Z,62.54
2023-02-07T10:04:37.000Z,61.83
2023-02-07T10:05:39.000Z,61.83
2023-02-07T10:06:29.000Z,61.96
2023-02-07T10:07:30.000Z,62.49
2023-02-07T10:08:30.000Z,62.72
2023-02-07T10:09:32.000Z,62.40
2023-02-07T10:10:40.000Z,61.83
2023-02-07T10:11:41.000Z,61.81
2023-02-07T10:12:50.000Z,61.85
2023-02-07T10:13:53.000Z,61.56
2023-02-07T10:14:54.000Z,61.70
2023-02-07T10:15:42.000Z,61.54
2023-02-07T10:16:44.000Z,61.30
2023-02-07T10:17:46.000Z,61.70
2023-02-07T10:18:43.000Z,61.29
2023-02-07T10:19:46.000Z,60.96
2023-02-07T10:20:39.000Z,60.77
2023-02-07T10:21:50.000Z,61.06
2023-02-07T10:22:39.000Z,60.87
2023-02-07T10:24:03.000Z,60.05
2023-02-07T10:24:39.000Z,60.37
2023-02-07T10:25:49.000Z,60.69
2023-02-07T10:26:41.000Z,60.88
2023-02-07T10:27:37.000Z,60.73
2023-02-07T10:28:39.000Z,60.89
2023-02-07T10:29:39.000Z,61.41
2023-02-07T10:30:34.000Z,61.20
2023-02-07T10:31:34.000Z,61.28
2023-02-07T10:32:36.000Z,60.85
2023-02-07T10:33:32.000Z,60.77
2023-02-07T10:34:35.000Z,61.34
2023-02-07T10:35:33.000Z,60.63
2023-02-07T10:36:32.000Z,60.04
2023-02-07T10:37:36.000Z,60.15
2023-02-07T10:38:37.000Z,60.30
2023-02-07T10:39:51.000Z,60.84
2023-02-07T10:40:49.000Z,61.08
2023-02-07T10:41:33.000Z,60.54
2023-02-07T10:42:34.000Z,59.95
2023-02-07T10:43:32.000Z,59.86
2023-02-07T10:44:29.000Z,60.50
2023-02-07T10:45:29.000Z,60.41
2023-02-07T10:46:30.000Z,59.97
2023-02-07T10:47:34.000Z,60.03
2023-02-07T10:48:29.000Z,60.02
2023-02-07T10:49:32.000Z,59.41
2023-02-07T10:50:29.000Z,59.97
2023-02-07T10:51:36.000Z,59.67
2023-02-07T10:52:35.000Z,59.61
2023-02-07T10:53:39.000Z,59.33
2023-02-07T10:54:48.000Z,59.40
2023-02-07T10:55:37.000Z,59.28
2023-02-07T10:56:31.000Z,58.04
2023-02-07T10:57:30.000Z,58.24
2023-02-07T10:58:37.000Z,58.99
2023-02-07T10:59:37.000Z,59.01
2023-02-07T11:00:32.000Z,58.38
2023-02-07T11:01:31.000Z,58.48
2023-02-07T11:02:58.000Z,58.87
2023-02-07T11:03:29.000Z,58.83
2023-02-07T11:04:35.000Z,58.27
2023-02-07T11:05:34.000Z,58.42
2023-02-07T11:06:31.000Z,58.47
2023-02-07T11:07:29.000Z,58.25
2023-02-07T11:08:31.000Z,58.09
2023-02-07T11:09:30.000Z,58.57
2023-02-07T11:10:35.000Z,58.79
2023-02-07T11:11:31.000Z,58.83
2023-02-07T11:12:29.000Z,58.52
2023-02-07T11:13:30.000Z,57.65
2023-02-07T11:14:29.000Z,57.01
2023-02-07T11:15:47.000Z,57.65
2023-02-07T11:16:30.000Z,57.64
2023-02-07T11:17:32.000Z,57.69
2023-02-07T11:18:45.000Z,57.49
2023-02-07T11:19:30.000Z,56.91
2023-02-07T11:20:35.000Z,56.80
2023-02-07T11:21:48.000Z,56.17
2023-02-07T11:22:29.000Z,56.66
2023-02-07T11:23:29.000Z,55.66
2023-02-07T11:24:34.000Z,56.87
2023-02-07T11:25:41.000Z,56.04
2023-02-07T11:26:31.000Z,56.20
2023-02-07T11:27:36.000Z,56.76
2023-02-07T11:28:31.000Z,56.81
2023-02-07T11:29:33.000Z,56.50
2023-02-07T11:30:34.000Z,56.22
2023-02-07T11:31:34.000Z,56.03
2023-02-07T11:32:30.000Z,56.46
2023-02-07T11:33:32.000Z,56.25
2023-02-07T11:34:43.000Z,55.33
2023-02-07T11:35:29.000Z,54.69
2023-02-07T11:36:32.000Z,55.24
2023-02-07T11:37:33.000Z,55.97
2023-02-07T11:38:35.000Z,56.22
2023-02-07T11:39:29.000Z,56.05
2023-02-07T11:40:36.000Z,55.47
2023-02-07T11:41:31.000Z,55.63
2023-02-07T11:42:30.000Z,55.24
2023-02-07T11:43:29.000Z,53.65
2023-02-07T11:44:29.000Z,53.36
2023-02-07T11:45:32.000Z,54.41
2023-02-07T11:46:36.000Z,54.34
2023-02-07T11:47:31.000Z,55.33
2023-02-07T11:48:34.000Z,54.92
2023-02-07T11:49:40.000Z,53.96
2023-02-07T11:50:35.000Z,53.26
2023-02-07T11:51:31.000Z,53.21
2023-02-07T11:52:32.000Z,54.21
2023-02-07T11:53:39.000Z,53.88
2023-02-07T11:54:30.000Z,53.37
2023-02-07T11:55:37.000Z,52.90
2023-02-07T11:56:41.000Z,52.57
2023-02-07T11:57:31.000Z,52.48
2023-02-07T11:58:36.000Z,50.51
2023-02-07T11:59:32.000Z,51.38
2023-02-07T12:00:35.000Z,51.94
2023-02-07T12:01:32.000Z,52.37
2023-02-07T12:02:29.000Z,52.22
2023-02-07T12:03:55.000Z,51.18
2023-02-07T12:04:33.000Z,51.15
2023-02-07T12:05:36.000Z,50.39
2023-02-07T12:06:45.000Z,51.00
2023-02-07T12:07:37.000Z,52.19
2023-02-07T12:08:33.000Z,51.82
2023-02-07T12:09:39.000Z,52.31
2023-02-07T12:10:33.000Z,51.49
2023-02-07T12:11:36.000Z,50.81
2023-02-07T12:12:42.000Z,50.88
2023-02-07T12:13:37.000Z,51.15
2023-02-07T12:14:39.000Z,51.32
2023-02-07T12:15:39.000Z,51.90
2023-02-07T12:16:34.000Z,51.73
2023-02-07T12:17:39.000Z,49.87
2023-02-07T12:18:49.000Z,49.66
2023-02-07T12:19:33.000Z,49.48
2023-02-07T12:20:37.000Z,50.00
2023-02-07T12:21:49.000Z,50.32
2023-02-07T12:22:36.000Z,50.38
2023-02-07T12:23:43.000Z,50.28
2023-02-07T12:24:39.000Z,49.05
2023-02-07T12:25:38.000Z,49.23
2023-02-07T12:26:33.000Z,49.99
2023-02-07T12:27:35.000Z,50.01
2023-02-07T12:28:50.000Z,49.99
2023-02-07T12:29:39.000Z,50.34
2023-02-07T12:30:41.000Z,49.69
2023-02-07T12:31:47.000Z,50.20
2023-02-07T12:32:39.000Z,50.16
2023-02-07T12:33:40.000Z,50.59
2023-02-07T12:34:36.000Z,51.32
2023-02-07T12:35:41.000Z,50.37
2023-02-07T12:36:34.000Z,51.17
2023-02-07T12:37:49.000Z,51.34
2023-02-07T12:38:49.000Z,50.49
2023-02-07T12:39:39.000Z,51.15
2023-02-07T12:40:47.000Z,50.40
2023-02-07T12:41:39.000Z,50.85
2023-02-07T12:42:38.000Z,49.94
2023-02-07T12:43:31.000Z,49.36
2023-02-07T12:44:33.000Z,49.21
2023-02-07T12:45:52.000Z,50.14
2023-02-07T12:46:55.000Z,50.75
2023-02-07T12:47:39.000Z,48.95
2023-02-07T12:48:52.000Z,49.58
2023-02-07T12:49:59.000Z,49.52
2023-02-07T12:50:39.000Z,50.70
2023-02-07T12:51:49.000Z,49.69
2023-02-07T12:52:51.000Z,49.76